createdAt,value
2019-04-20T00:00:49.173Z,60.40
2019-04-20T00:03:15.896Z,60.50
2019-04-20T00:05:46.163Z,61.50
2019-04-20T00:08:21.472Z,61.20
2019-04-20T00:10:58.296Z,61.80
2019-04-20T00:13:32.311Z,61.50
2019-04-20T00:15:51.360Z,61.70
2019-04-20T00:18:28.076Z,62.00
2019-04-20T00:21:00.404Z,61.40
2019-04-20T00:23:40.530Z,61.70
2019-04-20T00:26:33.336Z,62.10
2019-04-20T00:29:07.524Z,61.70
2019-04-20T00:31:36.740Z,61.60
2019-04-20T00:34:05.286Z,61.90
2019-04-20T00:36:27.142Z,62.10
2019-04-20T00:39:01.324Z,62.00
2019-04-20T00:41:29.721Z,62.00
2019-04-20T00:44:06.936Z,62.70
2019-04-20T00:46:39.790Z,62.20
2019-04-20T00:49:20.765Z,62.50
2019-04-20T00:51:51.561Z,62.60
2019-04-20T00:54:07.344Z,62.70
2019-04-20T00:56:39.178Z,63.20
2019-04-20T00:59:26.030Z,62.90
2019-04-20T01:02:00.591Z,63.20
2019-04-20T01:04:33.566Z,63.30
2019-04-20T01:07:13.682Z,63.60
2019-04-20T01:09:51.991Z,64.10
2019-04-20T01:12:26.257Z,63.20
2019-04-20T01:15:00.315Z,62.90
2019-04-20T01:17:25.453Z,63.00
2019-04-20T01:19:55.433Z,62.90
2019-04-20T01:22:28.587Z,62.90
2019-04-20T01:25:08.717Z,64.00
2019-04-20T01:27:42.094Z,63.10
2019-04-20T01:30:14.752Z,64.20
2019-04-20T01:32:55.411Z,65.00
2019-04-20T01:35:26.115Z,65.00
2019-04-20T01:37:57.426Z,65.70
2019-04-20T01:40:11.689Z,64.80
2019-04-20T01:42:42.853Z,65.20
2019-04-20T01:45:21.728Z,65.40
2019-04-20T01:47:50.828Z,65.40
2019-04-20T01:50:23.032Z,65.80
2019-04-20T01:53:04.180Z,65.40
2019-04-20T01:55:56.129Z,65.70
2019-04-20T01:58:30.224Z,66.00
2019-04-20T02:00:44.969Z,66.00
2019-04-20T02:03:38.603Z,65.90
2019-04-20T02:06:09.930Z,66.50
2019-04-20T02:08:35.944Z,66.20
2019-04-20T02:11:08.124Z,66.50
2019-04-20T02:13:46.720Z,66.70
2019-04-20T02:16:22.968Z,67.10
2019-04-20T02:19:08.031Z,67.20
2019-04-20T02:21:34.233Z,66.60
2019-04-20T02:23:54.722Z,68.20
2019-04-20T02:26:20.029Z,66.90
2019-04-20T02:34:33.960Z,64.70
2019-04-20T02:37:07.775Z,64.50
2019-04-20T02:42:08.811Z,64.70
2019-04-20T02:44:42.576Z,64.40
2019-04-20T02:47:14.046Z,63.90
2019-04-20T02:49:47.460Z,61.70
2019-04-20T02:52:12.836Z,63.00
2019-04-20T02:54:48.711Z,63.80
2019-04-20T02:57:26.185Z,62.70
2019-04-20T03:00:03.172Z,64.40
2019-04-20T03:02:06.360Z,64.80
2019-04-20T03:04:32.658Z,63.60
2019-04-20T03:07:07.960Z,64.30
2019-04-20T03:09:48.472Z,63.50
2019-04-20T03:12:23.818Z,60.50
2019-04-20T03:14:42.325Z,64.20
2019-04-20T03:17:22.618Z,64.70
2019-04-20T03:19:46.402Z,64.40
2019-04-20T03:22:35.307Z,64.50
2019-04-20T03:25:03.836Z,63.30
2019-04-20T03:27:24.790Z,64.10
2019-04-20T03:30:03.728Z,64.60
2019-04-20T03:37:44.261Z,63.50
2019-04-20T03:40:10.300Z,62.90
2019-04-20T03:42:24.480Z,62.90
2019-04-20T03:45:01.810Z,62.70
2019-04-20T03:47:35.941Z,64.50
2019-04-20T03:50:28.373Z,64.20
2019-04-20T03:52:56.274Z,62.10
2019-04-20T03:55:44.508Z,62.90
2019-04-20T03:58:19.692Z,65.00
2019-04-20T04:00:54.532Z,65.50
2019-04-20T04:03:56.058Z,65.10
2019-04-20T04:06:17.910Z,63.60
2019-04-20T04:08:56.021Z,62.50
2019-04-20T04:11:31.488Z,62.10
2019-04-20T04:13:45.903Z,62.00
2019-04-20T04:16:18.837Z,61.50
2019-04-20T04:18:58.428Z,61.60
2019-04-20T04:21:35.531Z,64.60
2019-04-20T04:24:05.599Z,63.20
2019-04-20T04:26:39.007Z,63.30
2019-04-20T04:29:19.161Z,63.20
2019-04-20T04:31:57.740Z,63.40
2019-04-20T04:34:20.948Z,64.30
2019-04-20T04:36:52.409Z,65.10
2019-04-20T04:39:27.750Z,64.10
2019-04-20T04:42:01.220Z,66.10
2019-04-20T04:44:19.316Z,65.50
2019-04-20T04:46:42.411Z,64.50
2019-04-20T04:49:18.323Z,65.70
2019-04-20T04:51:50.200Z,64.40
2019-04-20T04:54:21.976Z,63.80
2019-04-20T04:56:44.320Z,64.40
2019-04-20T04:59:14.934Z,64.90
2019-04-20T05:01:46.994Z,63.80
2019-04-20T05:04:40.121Z,63.50
2019-04-20T05:07:02.530Z,64.40
2019-04-20T05:09:23.666Z,64.80
2019-04-20T05:11:59.764Z,64.90
2019-04-20T05:14:38.758Z,65.10
2019-04-20T05:17:11.394Z,64.90
2019-04-20T05:19:47.870Z,66.40
2019-04-20T05:22:19.458Z,65.60
2019-04-20T05:25:01.148Z,65.70
2019-04-20T05:27:30.147Z,64.60
2019-04-20T05:29:42.927Z,64.30
2019-04-20T05:32:16.980Z,64.00
2019-04-20T05:37:43.199Z,64.30
2019-04-20T05:40:10.666Z,64.20
2019-04-20T05:42:44.229Z,63.80
2019-04-20T05:45:11.474Z,63.20
2019-04-20T05:47:43.138Z,62.50
2019-04-20T05:50:08.294Z,62.20
2019-04-20T05:53:07.494Z,63.10
2019-04-20T05:55:20.858Z,62.30
2019-04-20T05:57:50.460Z,62.70
2019-04-20T06:00:27.856Z,62.50
2019-04-20T06:02:54.013Z,61.60
2019-04-20T06:05:29.061Z,61.50
2019-04-20T06:07:59.120Z,60.70
2019-04-20T06:10:32.040Z,58.90
2019-04-20T06:13:00.558Z,55.50
2019-04-20T06:15:54.181Z,53.60
2019-04-20T06:18:42.513Z,53.50
2019-04-20T06:21:32.544Z,52.80
2019-04-20T06:23:59.329Z,51.40
2019-04-20T06:28:50.837Z,51.40
2019-04-20T06:31:35.528Z,52.10
2019-04-20T06:34:33.399Z,51.20
2019-04-20T06:37:08.483Z,51.00
2019-04-20T06:42:11.153Z,51.70
2019-04-20T06:44:35.418Z,51.30
2019-04-20T06:49:38.105Z,51.70
2019-04-20T06:52:23.687Z,50.40
2019-04-20T06:54:49.994Z,51.10
2019-04-20T06:57:18.407Z,51.40
2019-04-20T06:59:52.315Z,50.10
2019-04-20T07:02:32.447Z,49.80
2019-04-20T07:04:58.003Z,49.70
2019-04-20T07:07:24.059Z,48.60
2019-04-20T07:12:31.357Z,49.20
2019-04-20T07:14:50.988Z,48.80
2019-04-20T07:20:04.311Z,48.40
2019-04-20T07:22:46.175Z,49.90
2019-04-20T07:25:18.734Z,48.70
2019-04-20T07:27:49.096Z,49.10
2019-04-20T07:30:17.533Z,50.00
2019-04-20T07:33:08.719Z,48.60
2019-04-20T07:35:25.652Z,49.50
2019-04-20T07:38:15.484Z,49.20
2019-04-20T07:40:35.479Z,49.10
2019-04-20T07:43:04.633Z,49.20
2019-04-20T07:45:45.521Z,49.50
2019-04-20T07:50:37.583Z,49.20
2019-04-20T07:53:12.297Z,48.60
2019-04-20T07:58:11.125Z,48.00
2019-04-20T08:01:05.698Z,47.60
2019-04-20T08:03:33.699Z,47.80
2019-04-20T08:05:53.418Z,47.20
2019-04-20T08:08:30.814Z,48.90
2019-04-20T08:10:59.595Z,45.50
2019-04-20T08:13:39.109Z,46.00
2019-04-20T08:16:06.692Z,46.40
2019-04-20T08:18:41.254Z,46.40
2019-04-20T08:21:08.219Z,46.10
2019-04-20T08:23:47.340Z,44.40
2019-04-20T08:26:01.725Z,46.00
2019-04-20T08:28:38.465Z,46.10
2019-04-20T08:31:17.801Z,45.20
2019-04-20T08:34:07.426Z,44.80
2019-04-20T08:36:27.264Z,44.60
2019-04-20T08:41:28.614Z,43.70
2019-04-20T08:44:09.620Z,43.70
2019-04-20T08:46:41.738Z,44.20
2019-04-20T08:49:08.375Z,43.50
2019-04-20T08:51:41.943Z,44.70
2019-04-20T08:54:08.619Z,46.40
2019-04-20T08:56:31.872Z,45.00
2019-04-20T08:58:52.894Z,44.00
2019-04-20T09:01:28.229Z,42.30
2019-04-20T09:04:02.104Z,43.40
2019-04-20T09:06:40.016Z,43.20
2019-04-20T09:09:22.496Z,42.90
2019-04-20T09:11:49.644Z,45.50
2019-04-20T09:14:21.416Z,44.10
2019-04-20T09:16:59.807Z,44.80
2019-04-20T09:19:36.697Z,43.40
2019-04-20T09:22:28.263Z,43.30
2019-04-20T09:25:24.971Z,43.20
2019-04-20T09:27:29.512Z,42.70
2019-04-20T09:30:09.189Z,42.80
2019-04-20T09:32:50.457Z,41.70
2019-04-20T09:35:34.108Z,41.60
2019-04-20T09:38:01.706Z,43.10
2019-04-20T09:40:35.267Z,42.20
2019-04-20T09:42:56.653Z,43.30
2019-04-20T09:45:37.077Z,42.60
2019-04-20T09:48:00.539Z,42.80
2019-04-20T09:50:49.912Z,42.00
2019-04-20T09:53:21.266Z,41.00
2019-04-20T09:55:53.444Z,41.50
2019-04-20T09:58:18.989Z,41.30
2019-04-20T10:00:59.501Z,42.30
2019-04-20T10:03:14.540Z,43.30
2019-04-20T10:05:45.402Z,42.20
2019-04-20T10:08:15.606Z,42.10
2019-04-20T10:10:47.235Z,43.00
2019-04-20T10:13:17.479Z,41.30
2019-04-20T10:15:47.815Z,43.40
2019-04-20T10:18:19.770Z,41.20
2019-04-20T10:20:49.897Z,42.80
2019-04-20T10:23:20.749Z,42.80
2019-04-20T10:25:50.964Z,42.10
2019-04-20T10:28:21.514Z,43.10
2019-04-20T10:30:52.711Z,41.10
2019-04-20T10:33:25.699Z,41.90
2019-04-20T10:35:57.423Z,40.60
2019-04-20T10:38:33.950Z,40.00
2019-04-20T10:41:12.668Z,40.10
2019-04-20T10:43:35.064Z,40.40
2019-04-20T10:46:06.805Z,40.00
2019-04-20T10:48:41.744Z,38.80
2019-04-20T10:51:08.679Z,40.00
2019-04-20T10:53:38.699Z,40.00
2019-04-20T10:56:09.632Z,39.80
2019-04-20T10:58:40.077Z,40.40
2019-04-20T11:01:11.593Z,40.40
2019-04-20T11:03:42.741Z,39.50
2019-04-20T11:06:14.398Z,38.80
2019-04-20T11:08:44.640Z,35.40
2019-04-20T11:11:23.149Z,39.00
2019-04-20T11:13:47.585Z,39.30
2019-04-20T11:16:18.130Z,38.80
2019-04-20T11:18:49.336Z,38.80
2019-04-20T11:21:19.609Z,39.10
2019-04-20T11:23:50.021Z,38.70
2019-04-20T11:26:20.309Z,38.70
2019-04-20T11:28:50.403Z,38.70
2019-04-20T11:31:21.888Z,39.20
2019-04-20T11:33:52.312Z,40.90
2019-04-20T11:36:23.251Z,40.30
2019-04-20T11:38:54.446Z,40.00
2019-04-20T11:41:27.696Z,38.10
2019-04-20T11:43:57.606Z,37.20
2019-04-20T11:46:27.846Z,37.10
2019-04-20T11:48:57.857Z,38.00
2019-04-20T11:51:27.835Z,38.30
2019-04-20T11:53:58.546Z,37.00
2019-04-20T11:56:33.385Z,34.90
2019-04-20T11:59:00.953Z,32.80
2019-04-20T12:01:58.460Z,33.50
2019-04-20T12:04:38.148Z,34.50
2019-04-20T12:07:00.995Z,33.40
2019-04-20T12:09:31.668Z,35.60
2019-04-20T12:12:12.248Z,33.80
2019-04-20T12:14:34.558Z,32.70
2019-04-20T12:17:05.777Z,31.70
2019-04-20T12:19:36.261Z,32.80
2019-04-20T12:22:07.812Z,33.70
2019-04-20T12:24:38.194Z,32.50
2019-04-20T12:27:08.863Z,32.30
2019-04-20T12:29:40.556Z,31.30
2019-04-20T12:32:10.779Z,31.90
2019-04-20T12:34:41.256Z,31.90
2019-04-20T12:37:13.323Z,31.20
2019-04-20T12:39:44.881Z,31.60
2019-04-20T12:42:17.021Z,32.10
2019-04-20T12:44:48.000Z,31.50
2019-04-20T12:47:19.538Z,33.00
2019-04-20T12:49:49.746Z,32.80
2019-04-20T12:52:20.711Z,30.60
2019-04-20T12:54:50.868Z,30.00
2019-04-20T12:57:20.901Z,30.40
2019-04-20T12:59:52.337Z,29.50
2019-04-20T13:02:23.152Z,30.20
2019-04-20T13:04:53.474Z,30.00
2019-04-20T13:07:24.800Z,29.90
2019-04-20T13:09:54.884Z,30.60
2019-04-20T13:12:44.558Z,30.30
2019-04-20T13:15:38.209Z,29.30
2019-04-20T13:18:09.470Z,29.70
2019-04-20T13:20:39.738Z,29.70
2019-04-20T13:23:10.982Z,29.70
2019-04-20T13:25:41.273Z,31.10
2019-04-20T13:28:12.736Z,29.70
2019-04-20T13:30:43.895Z,30.30
2019-04-20T13:33:14.198Z,30.00
2019-04-20T13:35:44.450Z,30.90
2019-04-20T13:38:14.518Z,30.80
2019-04-20T13:40:45.864Z,31.20
2019-04-20T13:43:17.507Z,31.20
2019-04-20T13:45:48.879Z,31.10
2019-04-20T13:48:19.308Z,31.50
2019-04-20T13:50:49.725Z,31.30
2019-04-20T13:53:19.985Z,32.00
2019-04-20T13:55:51.951Z,31.50
2019-04-20T13:58:39.931Z,32.00
2019-04-20T14:01:14.829Z,31.80
2019-04-20T14:03:44.981Z,31.30
2019-04-20T14:06:16.348Z,30.80
2019-04-20T14:08:47.363Z,32.40
2019-04-20T14:11:17.770Z,31.80
2019-04-20T14:13:54.610Z,31.40
2019-04-20T14:16:19.493Z,31.70
2019-04-20T14:18:51.112Z,32.50
2019-04-20T14:21:21.221Z,31.50
2019-04-20T14:23:53.029Z,32.10
2019-04-20T14:26:23.125Z,31.80
2019-04-20T14:28:54.841Z,31.50
2019-04-20T14:31:25.876Z,33.30
2019-04-20T14:33:57.217Z,33.10
2019-04-20T14:36:28.708Z,32.50
2019-04-20T14:39:00.328Z,32.60
2019-04-20T14:41:32.085Z,32.00
2019-04-20T14:44:03.614Z,32.60
2019-04-20T14:46:33.828Z,33.20
2019-04-20T14:49:04.930Z,31.50
2019-04-20T14:51:37.389Z,31.80
2019-04-20T14:54:07.561Z,32.50
2019-04-20T14:56:37.768Z,32.80
2019-04-20T14:59:09.670Z,31.50
2019-04-20T15:01:42.686Z,31.30
2019-04-20T15:04:17.776Z,31.00
2019-04-20T15:06:44.537Z,31.60
2019-04-20T15:09:14.845Z,30.80
2019-04-20T15:11:46.482Z,32.50
2019-04-20T15:14:16.821Z,33.30
2019-04-20T15:16:46.832Z,34.00
2019-04-20T15:19:18.509Z,31.20
2019-04-20T15:21:53.525Z,31.30
2019-04-20T15:24:23.829Z,31.40
2019-04-20T15:26:54.242Z,30.10
2019-04-20T15:29:24.369Z,30.20
2019-04-20T15:31:56.503Z,30.40
2019-04-20T15:34:26.813Z,30.60
2019-04-20T15:36:57.973Z,30.80
2019-04-20T15:39:29.203Z,30.90
2019-04-20T15:42:01.180Z,29.60
2019-04-20T15:44:33.430Z,29.40
2019-04-20T15:47:03.749Z,29.20
2019-04-20T15:49:35.872Z,29.20
2019-04-20T15:52:06.070Z,28.60
2019-04-20T15:54:36.121Z,27.90
2019-04-20T15:57:12.740Z,28.20
2019-04-20T15:59:38.236Z,28.80
2019-04-20T16:02:29.370Z,29.00
2019-04-20T16:05:18.598Z,28.00
2019-04-20T16:07:55.077Z,27.80
2019-04-20T16:10:21.275Z,27.90
2019-04-20T16:13:04.848Z,27.20
2019-04-20T16:15:25.425Z,26.80
2019-04-20T16:17:56.824Z,27.00
2019-04-20T16:20:28.855Z,26.80
2019-04-20T16:22:58.754Z,25.60
2019-04-20T16:25:45.780Z,25.30
2019-04-20T16:28:17.266Z,25.30
2019-04-20T16:30:47.571Z,24.60
2019-04-20T16:33:18.613Z,25.70
2019-04-20T16:35:49.933Z,24.70
2019-04-20T16:38:20.486Z,25.40
2019-04-20T16:40:52.528Z,24.60
2019-04-20T16:43:29.377Z,24.60
2019-04-20T16:45:55.051Z,24.00
2019-04-20T16:48:26.364Z,24.40
2019-04-20T16:50:58.577Z,24.50
2019-04-20T16:53:28.826Z,24.80
2019-04-20T16:56:01.157Z,25.10
2019-04-20T16:58:33.478Z,24.90
2019-04-20T17:01:05.517Z,25.50
2019-04-20T17:03:44.397Z,25.60
2019-04-20T17:06:08.346Z,25.20
2019-04-20T17:08:41.073Z,25.20
2019-04-20T17:11:11.682Z,25.40
2019-04-20T17:13:48.042Z,25.60
2019-04-20T17:16:13.589Z,25.90
2019-04-20T17:18:47.646Z,26.00
2019-04-20T17:21:23.174Z,26.30
2019-04-20T17:23:51.207Z,26.10
2019-04-20T17:26:23.167Z,26.60
2019-04-20T17:28:55.467Z,26.50
2019-04-20T17:31:27.299Z,26.90
2019-04-20T17:34:10.612Z,27.20
2019-04-20T17:36:33.649Z,27.50
2019-04-20T17:39:07.830Z,27.30
2019-04-20T17:41:54.576Z,27.40
2019-04-20T17:44:24.688Z,27.80
2019-04-20T17:46:47.624Z,27.60
2019-04-20T17:49:26.950Z,27.90
2019-04-20T17:52:05.109Z,28.20
2019-04-20T17:54:19.838Z,28.30
2019-04-20T17:56:50.187Z,28.60
2019-04-20T17:59:20.290Z,28.80
2019-04-20T18:02:20.419Z,29.20
2019-04-20T18:05:08.208Z,29.40
2019-04-20T18:07:37.923Z,29.40
2019-04-20T18:10:06.761Z,29.60
2019-04-20T18:12:27.027Z,30.00
2019-04-20T18:15:10.128Z,30.30
2019-04-20T18:17:50.321Z,31.50
2019-04-20T18:20:07.660Z,31.40
2019-04-20T18:22:44.050Z,31.70
2019-04-20T18:25:32.499Z,32.40
2019-04-20T18:27:59.619Z,32.80
2019-04-20T18:30:29.830Z,33.10
2019-04-20T18:32:49.305Z,33.60
2019-04-20T18:35:22.402Z,34.10
2019-04-20T18:37:59.384Z,35.30
2019-04-20T18:40:32.567Z,35.00
2019-04-20T18:43:04.631Z,34.80
2019-04-20T18:45:41.073Z,35.40
2019-04-20T18:48:17.282Z,36.10
2019-04-20T18:50:37.980Z,37.00
2019-04-20T18:53:03.446Z,36.90
2019-04-20T18:55:46.283Z,36.40
2019-04-20T18:58:07.026Z,36.90
2019-04-20T19:00:42.796Z,35.20
2019-04-20T19:03:18.164Z,36.10
2019-04-20T19:05:42.033Z,35.80
2019-04-20T19:08:15.336Z,36.20
2019-04-20T19:10:54.142Z,36.20
2019-04-20T19:13:28.687Z,35.30
2019-04-20T19:16:15.279Z,36.00
2019-04-20T19:18:59.497Z,36.50
2019-04-20T19:21:17.263Z,36.30
2019-04-20T19:23:56.217Z,37.30
2019-04-20T19:26:21.528Z,37.80
2019-04-20T19:28:55.865Z,37.80
2019-04-20T19:31:39.258Z,35.60
2019-04-20T19:34:11.557Z,36.50
2019-04-20T19:36:34.890Z,35.40
2019-04-20T19:39:15.242Z,35.90
2019-04-20T19:41:42.264Z,36.30
2019-04-20T19:44:13.492Z,35.70
2019-04-20T19:46:53.768Z,35.60
2019-04-20T19:49:19.765Z,36.60
2019-04-20T19:52:04.215Z,35.90
2019-04-20T19:54:33.101Z,36.40
2019-04-20T19:57:00.476Z,38.70
2019-04-20T19:59:25.124Z,39.00
2019-04-20T20:01:49.733Z,38.70
2019-04-20T20:04:19.867Z,41.10
2019-04-20T20:06:56.523Z,39.90
2019-04-20T20:09:21.898Z,39.30
2019-04-20T20:11:56.158Z,41.30
2019-04-20T20:14:31.996Z,40.80
2019-04-20T20:17:08.871Z,39.10
2019-04-20T20:19:45.942Z,39.50
2019-04-20T20:22:11.691Z,39.40
2019-04-20T20:24:31.369Z,39.80
2019-04-20T20:27:06.251Z,38.50
2019-04-20T20:29:38.456Z,38.40
2019-04-20T20:32:19.143Z,41.60
2019-04-20T20:34:42.225Z,40.10
2019-04-20T20:37:12.991Z,39.00
2019-04-20T20:39:51.261Z,41.20
2019-04-20T20:42:26.070Z,41.80
2019-04-20T20:44:52.426Z,39.60
2019-04-20T20:47:41.169Z,43.30
2019-04-20T20:50:17.377Z,42.00
2019-04-20T20:52:37.878Z,43.30
2019-04-20T20:55:00.662Z,42.00
2019-04-20T20:57:31.166Z,46.30
2019-04-20T21:00:03.666Z,46.80
2019-04-20T21:02:43.518Z,44.30
2019-04-20T21:05:01.849Z,44.20
2019-04-20T21:07:32.254Z,41.50
2019-04-20T21:10:02.343Z,42.90
2019-04-20T21:12:36.440Z,46.30
2019-04-20T21:15:15.120Z,42.80
2019-04-20T21:18:05.499Z,42.90
2019-04-20T21:20:33.216Z,41.60
2019-04-20T21:22:58.372Z,40.80
2019-04-20T21:25:21.139Z,40.80
2019-04-20T21:27:51.345Z,41.30
2019-04-20T21:30:31.030Z,45.00
2019-04-20T21:32:57.325Z,44.20
2019-04-20T21:35:25.936Z,42.20
2019-04-20T21:38:02.467Z,41.20
2019-04-20T21:40:35.317Z,40.80
2019-04-20T21:43:05.056Z,41.70
2019-04-20T21:45:35.732Z,41.20
2019-04-20T21:48:11.485Z,41.50
2019-04-20T21:50:54.589Z,44.20
2019-04-20T21:53:15.479Z,43.70
2019-04-20T21:55:37.797Z,45.10
2019-04-20T21:58:09.108Z,45.30
2019-04-20T22:01:07.010Z,44.80
2019-04-20T22:03:26.817Z,45.90
2019-04-20T22:06:04.780Z,48.30
2019-04-20T22:08:39.449Z,47.20
2019-04-20T22:11:08.033Z,47.10
2019-04-20T22:13:42.103Z,47.60
2019-04-20T22:16:12.551Z,47.80
2019-04-20T22:18:59.291Z,48.20
2019-04-20T22:21:24.855Z,46.50
2019-04-20T22:24:00.565Z,47.00
2019-04-20T22:26:30.035Z,47.20
2019-04-20T22:28:50.005Z,47.40
2019-04-20T22:31:20.391Z,47.60
2019-04-20T22:33:50.664Z,47.40
2019-04-20T22:36:24.833Z,46.60
2019-04-20T22:39:13.241Z,47.50
2019-04-20T22:41:54.689Z,47.50
2019-04-20T22:44:20.932Z,46.90
2019-04-20T22:46:50.082Z,47.60
2019-04-20T22:49:36.326Z,46.20
2019-04-20T22:52:00.697Z,45.70
2019-04-20T22:54:39.706Z,45.90
2019-04-20T22:57:05.951Z,46.20
2019-04-20T22:59:38.386Z,46.60
2019-04-20T23:02:01.193Z,46.60
2019-04-20T23:04:30.889Z,46.10
2019-04-20T23:07:01.213Z,45.50
2019-04-20T23:09:32.823Z,46.90
2019-04-20T23:12:09.198Z,45.70
2019-04-20T23:14:34.547Z,46.80
2019-04-20T23:17:06.222Z,47.00
2019-04-20T23:19:45.709Z,45.80
2019-04-20T23:22:11.689Z,45.20
2019-04-20T23:24:39.842Z,45.30
2019-04-20T23:27:16.616Z,45.00
2019-04-20T23:29:42.158Z,46.20
2019-04-20T23:32:14.549Z,46.80
2019-04-20T23:34:44.850Z,46.60
2019-04-20T23:37:23.407Z,47.30
2019-04-20T23:39:52.594Z,45.80
2019-04-20T23:42:33.614Z,45.40
2019-04-20T23:45:05.593Z,46.50
2019-04-20T23:47:47.897Z,46.60
2019-04-20T23:50:34.218Z,46.70
2019-04-20T23:53:05.502Z,46.80
2019-04-20T23:55:19.082Z,47.20
2019-04-20T23:57:55.909Z,47.00
